sensor_id;sensor_type;location;lat;lon;timestamp;temperature;humidity
10572;DHT22;5334;48.928;12.704;2024-02-15T00:02:14;7.40;99.90
10572;DHT22;5334;48.928;12.704;2024-02-15T00:04:39;7.40;99.90
10572;DHT22;5334;48.928;12.704;2024-02-15T00:07:05;7.40;99.90
10572;DHT22;5334;48.928;12.704;2024-02-15T00:09:31;7.40;99.90
10572;DHT22;5334;48.928;12.704;2024-02-15T00:11:57;7.30;99.90
10572;DHT22;5334;48.928;12.704;2024-02-15T00:14:25;7.40;99.90
10572;DHT22;5334;48.928;12.704;2024-02-15T00:16:51;7.30;99.90
10572;DHT22;5334;48.928;12.704;2024-02-15T00:19:17;7.30;99.90
10572;DHT22;5334;48.928;12.704;2024-02-15T00:21:43;7.30;99.90
10572;DHT22;5334;48.928;12.704;2024-02-15T00:24:09;7.20;99.90
10572;DHT22;5334;48.928;12.704;2024-02-15T00:26:35;7.20;99.90
10572;DHT22;5334;48.928;12.704;2024-02-15T00:29:01;7.20;99.90
10572;DHT22;5334;48.928;12.704;2024-02-15T00:31:27;7.20;99.90
10572;DHT22;5334;48.928;12.704;2024-02-15T00:33:52;7.10;99.90
10572;DHT22;5334;48.928;12.704;2024-02-15T00:36:19;7.10;99.90
10572;DHT22;5334;48.928;12.704;2024-02-15T00:38:45;7.10;99.90
10572;DHT22;5334;48.928;12.704;2024-02-15T00:41:10;7.10;99.90
10572;DHT22;5334;48.928;12.704;2024-02-15T00:43:36;7.10;99.90
10572;DHT22;5334;48.928;12.704;2024-02-15T00:46:03;7.10;99.90
10572;DHT22;5334;48.928;12.704;2024-02-15T00:48:28;7.10;99.90
10572;DHT22;5334;48.928;12.704;2024-02-15T00:50:55;7.10;99.90
10572;DHT22;5334;48.928;12.704;2024-02-15T00:53:21;7.10;99.90
10572;DHT22;5334;48.928;12.704;2024-02-15T00:55:47;7.10;99.90
10572;DHT22;5334;48.928;12.704;2024-02-15T00:58:12;7.10;99.90
10572;DHT22;5334;48.928;12.704;2024-02-15T01:00:38;7.10;99.90
10572;DHT22;5334;48.928;12.704;2024-02-15T01:03:04;7.20;99.90
10572;DHT22;5334;48.928;12.704;2024-02-15T01:05:30;7.20;99.90
10572;DHT22;5334;48.928;12.704;2024-02-15T01:07:56;7.20;99.90
10572;DHT22;5334;48.928;12.704;2024-02-15T01:10:22;7.30;99.90
10572;DHT22;5334;48.928;12.704;2024-02-15T01:12:50;7.30;99.90
10572;DHT22;5334;48.928;12.704;2024-02-15T01:15:15;7.30;99.90
10572;DHT22;5334;48.928;12.704;2024-02-15T01:17:45;7.30;99.90
10572;DHT22;5334;48.928;12.704;2024-02-15T01:20:11;7.30;99.90
10572;DHT22;5334;48.928;12.704;2024-02-15T01:22:37;7.30;99.90
10572;DHT22;5334;48.928;12.704;2024-02-15T01:25:03;7.30;99.90
10572;DHT22;5334;48.928;12.704;2024-02-15T01:27:28;7.30;99.90
10572;DHT22;5334;48.928;12.704;2024-02-15T01:29:56;7.30;99.90
10572;DHT22;5334;48.928;12.704;2024-02-15T01:32:22;7.30;99.90
10572;DHT22;5334;48.928;12.704;2024-02-15T01:34:47;7.30;99.90
10572;DHT22;5334;48.928;12.704;2024-02-15T01:37:13;7.30;99.90
10572;DHT22;5334;48.928;12.704;2024-02-15T01:39:39;7.40;99.90
10572;DHT22;5334;48.928;12.704;2024-02-15T01:42:05;7.40;99.90
10572;DHT22;5334;48.928;12.704;2024-02-15T01:44:31;7.40;99.90
10572;DHT22;5334;48.928;12.704;2024-02-15T01:46:58;7.30;99.90
10572;DHT22;5334;48.928;12.704;2024-02-15T01:49:25;7.40;99.90
10572;DHT22;5334;48.928;12.704;2024-02-15T01:51:54;7.30;99.90
10572;DHT22;5334;48.928;12.704;2024-02-15T01:54:22;7.30;99.90
10572;DHT22;5334;48.928;12.704;2024-02-15T01:56:48;7.30;99.90
10572;DHT22;5334;48.928;12.704;2024-02-15T01:59:15;7.30;99.90
10572;DHT22;5334;48.928;12.704;2024-02-15T02:01:42;7.30;99.90
10572;DHT22;5334;48.928;12.704;2024-02-15T02:04:08;7.30;99.90
10572;DHT22;5334;48.928;12.704;2024-02-15T02:06:34;7.30;99.90
10572;DHT22;5334;48.928;12.704;2024-02-15T02:09:00;7.30;99.90
10572;DHT22;5334;48.928;12.704;2024-02-15T02:11:27;7.40;99.90
10572;DHT22;5334;48.928;12.704;2024-02-15T02:13:55;7.40;99.90
10572;DHT22;5334;48.928;12.704;2024-02-15T02:16:27;7.30;99.90
10572;DHT22;5334;48.928;12.704;2024-02-15T02:18:57;7.30;99.90
10572;DHT22;5334;48.928;12.704;2024-02-15T02:21:25;7.40;99.90
10572;DHT22;5334;48.928;12.704;2024-02-15T02:23:56;7.40;99.90
10572;DHT22;5334;48.928;12.704;2024-02-15T02:26:23;7.40;99.90
10572;DHT22;5334;48.928;12.704;2024-02-15T02:28:50;7.50;99.90
10572;DHT22;5334;48.928;12.704;2024-02-15T02:31:18;7.50;99.90
10572;DHT22;5334;48.928;12.704;2024-02-15T02:33:52;7.60;99.90
10572;DHT22;5334;48.928;12.704;2024-02-15T02:36:18;7.50;99.90
10572;DHT22;5334;48.928;12.704;2024-02-15T02:38:44;7.50;99.90
10572;DHT22;5334;48.928;12.704;2024-02-15T02:41:16;7.50;99.90
10572;DHT22;5334;48.928;12.704;2024-02-15T02:43:44;7.60;99.90
10572;DHT22;5334;48.928;12.704;2024-02-15T02:46:11;7.60;99.90
10572;DHT22;5334;48.928;12.704;2024-02-15T02:48:39;7.60;99.90
10572;DHT22;5334;48.928;12.704;2024-02-15T02:51:06;7.60;99.90
10572;DHT22;5334;48.928;12.704;2024-02-15T02:53:32;7.60;99.90
10572;DHT22;5334;48.928;12.704;2024-02-15T02:55:58;7.60;99.90
10572;DHT22;5334;48.928;12.704;2024-02-15T02:58:23;7.60;99.90
10572;DHT22;5334;48.928;12.704;2024-02-15T03:00:50;7.60;99.90
10572;DHT22;5334;48.928;12.704;2024-02-15T03:03:16;7.60;99.90
10572;DHT22;5334;48.928;12.704;2024-02-15T03:05:42;7.60;99.90
10572;DHT22;5334;48.928;12.704;2024-02-15T03:08:11;7.60;99.90
10572;DHT22;5334;48.928;12.704;2024-02-15T03:10:38;7.60;99.90
10572;DHT22;5334;48.928;12.704;2024-02-15T03:13:05;7.60;99.90
10572;DHT22;5334;48.928;12.704;2024-02-15T03:15:31;7.60;99.90
10572;DHT22;5334;48.928;12.704;2024-02-15T03:17:58;7.60;99.90
10572;DHT22;5334;48.928;12.704;2024-02-15T03:20:24;7.50;99.90
10572;DHT22;5334;48.928;12.704;2024-02-15T03:22:57;7.50;99.90
10572;DHT22;5334;48.928;12.704;2024-02-15T03:25:27;7.50;99.90
10572;DHT22;5334;48.928;12.704;2024-02-15T03:27:55;7.50;99.90
10572;DHT22;5334;48.928;12.704;2024-02-15T03:30:23;7.50;99.90
10572;DHT22;5334;48.928;12.704;2024-02-15T03:32:49;7.60;99.90
10572;DHT22;5334;48.928;12.704;2024-02-15T03:35:19;7.60;99.90
10572;DHT22;5334;48.928;12.704;2024-02-15T03:37:45;7.60;99.90
10572;DHT22;5334;48.928;12.704;2024-02-15T03:40:11;7.60;99.90
10572;DHT22;5334;48.928;12.704;2024-02-15T03:42:37;7.60;99.90
10572;DHT22;5334;48.928;12.704;2024-02-15T03:45:06;7.60;99.90
10572;DHT22;5334;48.928;12.704;2024-02-15T03:47:32;7.60;99.90
10572;DHT22;5334;48.928;12.704;2024-02-15T03:50:05;7.50;99.90
10572;DHT22;5334;48.928;12.704;2024-02-15T03:52:31;7.50;99.90
10572;DHT22;5334;48.928;12.704;2024-02-15T03:54:58;7.50;99.90
10572;DHT22;5334;48.928;12.704;2024-02-15T03:57:28;7.50;99.90
10572;DHT22;5334;48.928;12.704;2024-02-15T03:59:54;7.50;99.90
10572;DHT22;5334;48.928;12.704;2024-02-15T04:02:23;7.50;99.90
10572;DHT22;5334;48.928;12.704;2024-02-15T04:04:55;7.50;99.90
10572;DHT22;5334;48.928;12.704;2024-02-15T04:07:21;7.50;99.90
10572;DHT22;5334;48.928;12.704;2024-02-15T04:09:47;7.40;99.90
10572;DHT22;5334;48.928;12.704;2024-02-15T04:12:13;7.40;99.90
10572;DHT22;5334;48.928;12.704;2024-02-15T04:14:40;7.40;99.90
10572;DHT22;5334;48.928;12.704;2024-02-15T04:17:06;7.40;99.90
10572;DHT22;5334;48.928;12.704;2024-02-15T04:19:32;7.30;99.90
10572;DHT22;5334;48.928;12.704;2024-02-15T04:21:58;7.30;99.90
10572;DHT22;5334;48.928;12.704;2024-02-15T04:24:26;7.40;99.90
10572;DHT22;5334;48.928;12.704;2024-02-15T04:26:52;7.30;99.90
10572;DHT22;5334;48.928;12.704;2024-02-15T04:29:18;7.30;99.90
10572;DHT22;5334;48.928;12.704;2024-02-15T04:31:46;7.20;99.90
10572;DHT22;5334;48.928;12.704;2024-02-15T04:34:17;7.20;99.90
10572;DHT22;5334;48.928;12.704;2024-02-15T04:36:47;7.20;99.90
10572;DHT22;5334;48.928;12.704;2024-02-15T04:39:16;7.20;99.90
10572;DHT22;5334;48.928;12.704;2024-02-15T04:41:53;7.30;99.90
10572;DHT22;5334;48.928;12.704;2024-02-15T04:44:19;7.30;99.90
10572;DHT22;5334;48.928;12.704;2024-02-15T04:46:52;7.30;99.90
10572;DHT22;5334;48.928;12.704;2024-02-15T04:49:19;7.40;99.90
10572;DHT22;5334;48.928;12.704;2024-02-15T04:51:45;7.40;99.90
10572;DHT22;5334;48.928;12.704;2024-02-15T04:54:11;7.50;99.90
10572;DHT22;5334;48.928;12.704;2024-02-15T04:56:40;7.40;99.90
10572;DHT22;5334;48.928;12.704;2024-02-15T04:59:07;7.50;99.90
10572;DHT22;5334;48.928;12.704;2024-02-15T05:01:34;7.40;99.90
10572;DHT22;5334;48.928;12.704;2024-02-15T05:04:01;7.40;99.90
10572;DHT22;5334;48.928;12.704;2024-02-15T05:06:31;7.40;99.90
10572;DHT22;5334;48.928;12.704;2024-02-15T05:08:57;7.40;99.90
10572;DHT22;5334;48.928;12.704;2024-02-15T05:11:25;7.50;99.90
10572;DHT22;5334;48.928;12.704;2024-02-15T05:13:51;7.50;99.90
10572;DHT22;5334;48.928;12.704;2024-02-15T05:16:17;7.60;99.90
10572;DHT22;5334;48.928;12.704;2024-02-15T05:18:44;7.60;99.90
10572;DHT22;5334;48.928;12.704;2024-02-15T05:21:14;7.60;99.90
10572;DHT22;5334;48.928;12.704;2024-02-15T05:23:41;7.70;99.90
10572;DHT22;5334;48.928;12.704;2024-02-15T05:26:08;7.70;99.90
10572;DHT22;5334;48.928;12.704;2024-02-15T05:28:33;7.70;99.90
10572;DHT22;5334;48.928;12.704;2024-02-15T05:31:29;7.70;99.90
10572;DHT22;5334;48.928;12.704;2024-02-15T05:33:54;7.70;99.90
10572;DHT22;5334;48.928;12.704;2024-02-15T05:36:21;7.80;99.90
10572;DHT22;5334;48.928;12.704;2024-02-15T05:38:53;7.80;99.90
10572;DHT22;5334;48.928;12.704;2024-02-15T05:41:19;7.80;99.90
10572;DHT22;5334;48.928;12.704;2024-02-15T05:43:46;7.80;99.90
10572;DHT22;5334;48.928;12.704;2024-02-15T05:46:14;7.80;99.90
10572;DHT22;5334;48.928;12.704;2024-02-15T05:48:40;7.80;99.90
10572;DHT22;5334;48.928;12.704;2024-02-15T05:51:07;7.80;99.90
10572;DHT22;5334;48.928;12.704;2024-02-15T05:53:34;7.70;99.90
10572;DHT22;5334;48.928;12.704;2024-02-15T05:56:04;7.70;99.90
10572;DHT22;5334;48.928;12.704;2024-02-15T05:58:30;7.80;99.90
10572;DHT22;5334;48.928;12.704;2024-02-15T06:00:57;7.80;99.90
10572;DHT22;5334;48.928;12.704;2024-02-15T06:03:28;7.80;99.90
10572;DHT22;5334;48.928;12.704;2024-02-15T06:05:53;7.80;99.90
10572;DHT22;5334;48.928;12.704;2024-02-15T06:08:27;7.80;99.90
10572;DHT22;5334;48.928;12.704;2024-02-15T06:10:53;7.80;99.90
10572;DHT22;5334;48.928;12.704;2024-02-15T06:13:19;7.80;99.90
10572;DHT22;5334;48.928;12.704;2024-02-15T06:15:45;7.70;99.90
10572;DHT22;5334;48.928;12.704;2024-02-15T06:18:15;7.80;99.90
10572;DHT22;5334;48.928;12.704;2024-02-15T06:20:42;7.70;99.90
10572;DHT22;5334;48.928;12.704;2024-02-15T06:23:08;7.70;99.90
10572;DHT22;5334;48.928;12.704;2024-02-15T06:25:36;7.70;99.90
10572;DHT22;5334;48.928;12.704;2024-02-15T06:28:02;7.70;99.90
10572;DHT22;5334;48.928;12.704;2024-02-15T06:30:41;7.70;99.90
10572;DHT22;5334;48.928;12.704;2024-02-15T06:33:26;7.70;99.90
10572;DHT22;5334;48.928;12.704;2024-02-15T06:36:10;7.70;99.90
10572;DHT22;5334;48.928;12.704;2024-02-15T06:38:54;7.70;99.90
10572;DHT22;5334;48.928;12.704;2024-02-15T06:41:38;7.70;99.90
10572;DHT22;5334;48.928;12.704;2024-02-15T06:44:04;7.80;99.90
10572;DHT22;5334;48.928;12.704;2024-02-15T06:46:29;7.80;99.90
10572;DHT22;5334;48.928;12.704;2024-02-15T06:48:55;7.80;99.90
10572;DHT22;5334;48.928;12.704;2024-02-15T06:51:23;7.80;99.90
10572;DHT22;5334;48.928;12.704;2024-02-15T06:53:50;7.80;99.90
10572;DHT22;5334;48.928;12.704;2024-02-15T06:56:17;7.90;99.90
10572;DHT22;5334;48.928;12.704;2024-02-15T06:58:43;7.90;99.90
10572;DHT22;5334;48.928;12.704;2024-02-15T07:01:09;7.90;99.90
10572;DHT22;5334;48.928;12.704;2024-02-15T07:03:34;7.90;99.90
10572;DHT22;5334;48.928;12.704;2024-02-15T07:06:01;7.90;99.90
10572;DHT22;5334;48.928;12.704;2024-02-15T07:08:28;7.90;99.90
10572;DHT22;5334;48.928;12.704;2024-02-15T07:10:55;7.90;99.90
10572;DHT22;5334;48.928;12.704;2024-02-15T07:13:20;7.90;99.90
10572;DHT22;5334;48.928;12.704;2024-02-15T07:15:46;7.90;99.90
10572;DHT22;5334;48.928;12.704;2024-02-15T07:18:15;7.90;99.90
10572;DHT22;5334;48.928;12.704;2024-02-15T07:20:42;7.90;99.90
10572;DHT22;5334;48.928;12.704;2024-02-15T07:23:07;7.90;99.90
10572;DHT22;5334;48.928;12.704;2024-02-15T07:25:33;7.90;99.90
10572;DHT22;5334;48.928;12.704;2024-02-15T07:27:59;8.00;99.90
10572;DHT22;5334;48.928;12.704;2024-02-15T07:30:25;8.00;99.90
10572;DHT22;5334;48.928;12.704;2024-02-15T07:32:51;8.00;99.90
10572;DHT22;5334;48.928;12.704;2024-02-15T07:35:17;8.00;99.90
10572;DHT22;5334;48.928;12.704;2024-02-15T07:37:55;8.00;99.90
10572;DHT22;5334;48.928;12.704;2024-02-15T07:40:24;8.00;99.90
10572;DHT22;5334;48.928;12.704;2024-02-15T07:42:54;8.10;99.90
10572;DHT22;5334;48.928;12.704;2024-02-15T07:45:20;8.10;99.90
10572;DHT22;5334;48.928;12.704;2024-02-15T07:47:45;8.10;99.90
10572;DHT22;5334;48.928;12.704;2024-02-15T07:50:16;8.10;99.90
10572;DHT22;5334;48.928;12.704;2024-02-15T07:52:45;8.20;99.90
10572;DHT22;5334;48.928;12.704;2024-02-15T07:55:11;8.30;99.90
10572;DHT22;5334;48.928;12.704;2024-02-15T07:57:37;8.30;99.90
10572;DHT22;5334;48.928;12.704;2024-02-15T08:00:04;8.30;99.90
10572;DHT22;5334;48.928;12.704;2024-02-15T08:02:38;8.40;99.90
10572;DHT22;5334;48.928;12.704;2024-02-15T08:05:09;8.50;99.90
10572;DHT22;5334;48.928;12.704;2024-02-15T08:07:42;8.60;99.90
10572;DHT22;5334;48.928;12.704;2024-02-15T08:10:09;8.70;99.90
10572;DHT22;5334;48.928;12.704;2024-02-15T08:12:44;8.80;99.90
10572;DHT22;5334;48.928;12.704;2024-02-15T08:15:10;8.80;99.90
10572;DHT22;5334;48.928;12.704;2024-02-15T08:17:38;8.90;99.90
10572;DHT22;5334;48.928;12.704;2024-02-15T08:20:06;8.90;99.90
10572;DHT22;5334;48.928;12.704;2024-02-15T08:22:33;9.00;99.90
10572;DHT22;5334;48.928;12.704;2024-02-15T08:24:59;9.00;99.90
10572;DHT22;5334;48.928;12.704;2024-02-15T08:27:25;9.00;99.90
10572;DHT22;5334;48.928;12.704;2024-02-15T08:29:51;9.10;99.90
10572;DHT22;5334;48.928;12.704;2024-02-15T08:32:16;9.10;99.90
10572;DHT22;5334;48.928;12.704;2024-02-15T08:34:42;9.10;99.90
10572;DHT22;5334;48.928;12.704;2024-02-15T08:37:08;9.10;99.90
10572;DHT22;5334;48.928;12.704;2024-02-15T08:39:34;9.20;99.90
10572;DHT22;5334;48.928;12.704;2024-02-15T08:42:00;9.20;99.90
10572;DHT22;5334;48.928;12.704;2024-02-15T08:44:25;9.30;99.90
10572;DHT22;5334;48.928;12.704;2024-02-15T08:46:51;9.40;99.90
10572;DHT22;5334;48.928;12.704;2024-02-15T08:49:17;9.50;99.90
10572;DHT22;5334;48.928;12.704;2024-02-15T08:51:42;9.60;99.90
10572;DHT22;5334;48.928;12.704;2024-02-15T08:54:08;9.60;99.90
10572;DHT22;5334;48.928;12.704;2024-02-15T08:56:35;9.60;99.90
10572;DHT22;5334;48.928;12.704;2024-02-15T08:59:01;9.60;99.90
10572;DHT22;5334;48.928;12.704;2024-02-15T09:01:27;9.50;99.90
10572;DHT22;5334;48.928;12.704;2024-02-15T09:03:53;9.60;99.90
10572;DHT22;5334;48.928;12.704;2024-02-15T09:06:19;9.60;99.90
10572;DHT22;5334;48.928;12.704;2024-02-15T09:08:45;9.60;99.90
10572;DHT22;5334;48.928;12.704;2024-02-15T09:11:11;9.70;99.90
10572;DHT22;5334;48.928;12.704;2024-02-15T09:13:38;9.70;99.90
10572;DHT22;5334;48.928;12.704;2024-02-15T09:16:05;9.80;99.90
10572;DHT22;5334;48.928;12.704;2024-02-15T09:18:30;9.80;99.90
10572;DHT22;5334;48.928;12.704;2024-02-15T09:20:56;9.90;99.90
10572;DHT22;5334;48.928;12.704;2024-02-15T09:23:22;9.90;99.90
10572;DHT22;5334;48.928;12.704;2024-02-15T09:25:49;9.80;99.90
10572;DHT22;5334;48.928;12.704;2024-02-15T09:28:18;9.80;99.90
10572;DHT22;5334;48.928;12.704;2024-02-15T09:30:48;9.70;99.90
10572;DHT22;5334;48.928;12.704;2024-02-15T09:33:17;9.80;99.90
10572;DHT22;5334;48.928;12.704;2024-02-15T09:35:43;9.80;99.90
10572;DHT22;5334;48.928;12.704;2024-02-15T09:38:08;9.90;99.90
10572;DHT22;5334;48.928;12.704;2024-02-15T09:40:35;10.10;99.90
10572;DHT22;5334;48.928;12.704;2024-02-15T09:43:01;10.40;99.90
10572;DHT22;5334;48.928;12.704;2024-02-15T09:45:26;10.70;99.90
10572;DHT22;5334;48.928;12.704;2024-02-15T09:47:52;11.20;99.90
10572;DHT22;5334;48.928;12.704;2024-02-15T09:50:19;11.50;99.90
10572;DHT22;5334;48.928;12.704;2024-02-15T09:52:49;11.70;99.90
10572;DHT22;5334;48.928;12.704;2024-02-15T09:55:16;12.00;99.90
10572;DHT22;5334;48.928;12.704;2024-02-15T09:57:43;12.10;99.90
10572;DHT22;5334;48.928;12.704;2024-02-15T10:00:11;12.20;99.90
10572;DHT22;5334;48.928;12.704;2024-02-15T10:02:41;12.30;99.90
10572;DHT22;5334;48.928;12.704;2024-02-15T10:05:10;12.30;99.90
10572;DHT22;5334;48.928;12.704;2024-02-15T10:07:42;12.40;99.90
10572;DHT22;5334;48.928;12.704;2024-02-15T10:10:21;12.50;99.90
10572;DHT22;5334;48.928;12.704;2024-02-15T10:12:51;12.60;99.90
10572;DHT22;5334;48.928;12.704;2024-02-15T10:15:36;12.80;99.90
10572;DHT22;5334;48.928;12.704;2024-02-15T10:18:04;12.90;99.90
10572;DHT22;5334;48.928;12.704;2024-02-15T10:20:30;13.00;99.90
10572;DHT22;5334;48.928;12.704;2024-02-15T10:25:29;13.40;99.90
10572;DHT22;5334;48.928;12.704;2024-02-15T10:28:05;13.40;99.90
10572;DHT22;5334;48.928;12.704;2024-02-15T10:30:43;13.40;99.90
10572;DHT22;5334;48.928;12.704;2024-02-15T10:33:30;13.50;99.90
10572;DHT22;5334;48.928;12.704;2024-02-15T10:36:09;13.60;99.90
10572;DHT22;5334;48.928;12.704;2024-02-15T10:38:35;13.50;99.90
10572;DHT22;5334;48.928;12.704;2024-02-15T10:41:07;13.40;99.90
10572;DHT22;5334;48.928;12.704;2024-02-15T10:43:37;13.30;99.90
10572;DHT22;5334;48.928;12.704;2024-02-15T10:46:04;12.90;99.90
10572;DHT22;5334;48.928;12.704;2024-02-15T10:48:30;13.10;99.90
10572;DHT22;5334;48.928;12.704;2024-02-15T10:50:57;13.10;99.90
10572;DHT22;5334;48.928;12.704;2024-02-15T10:53:27;13.30;99.90
10572;DHT22;5334;48.928;12.704;2024-02-15T10:55:53;13.30;99.90
10572;DHT22;5334;48.928;12.704;2024-02-15T10:58:26;13.30;99.90
10572;DHT22;5334;48.928;12.704;2024-02-15T11:00:56;13.30;99.90
10572;DHT22;5334;48.928;12.704;2024-02-15T11:03:43;13.30;99.90
10572;DHT22;5334;48.928;12.704;2024-02-15T11:06:14;13.20;99.90
10572;DHT22;5334;48.928;12.704;2024-02-15T11:08:41;13.20;99.90
10572;DHT22;5334;48.928;12.704;2024-02-15T11:11:07;13.20;99.90
10572;DHT22;5334;48.928;12.704;2024-02-15T11:13:37;13.10;99.90
10572;DHT22;5334;48.928;12.704;2024-02-15T11:16:03;13.20;99.90
10572;DHT22;5334;48.928;12.704;2024-02-15T11:18:42;13.50;99.90
10572;DHT22;5334;48.928;12.704;2024-02-15T11:21:10;14.00;99.90
10572;DHT22;5334;48.928;12.704;2024-02-15T11:23:36;14.40;99.90
10572;DHT22;5334;48.928;12.704;2024-02-15T11:26:01;14.50;99.90
10572;DHT22;5334;48.928;12.704;2024-02-15T11:28:36;14.30;99.90
10572;DHT22;5334;48.928;12.704;2024-02-15T11:31:07;14.20;99.90
10572;DHT22;5334;48.928;12.704;2024-02-15T11:33:36;14.10;99.90
10572;DHT22;5334;48.928;12.704;2024-02-15T11:36:09;14.10;99.90
10572;DHT22;5334;48.928;12.704;2024-02-15T11:38:36;14.10;99.90
10572;DHT22;5334;48.928;12.704;2024-02-15T11:41:03;14.10;99.90
10572;DHT22;5334;48.928;12.704;2024-02-15T11:46:29;14.30;99.90
10572;DHT22;5334;48.928;12.704;2024-02-15T11:49:00;14.30;99.90
10572;DHT22;5334;48.928;12.704;2024-02-15T11:51:26;14.50;99.90
10572;DHT22;5334;48.928;12.704;2024-02-15T11:54:20;14.60;99.90
10572;DHT22;5334;48.928;12.704;2024-02-15T11:56:56;15.00;99.90
10572;DHT22;5334;48.928;12.704;2024-02-15T11:59:44;15.30;99.90
10572;DHT22;5334;48.928;12.704;2024-02-15T12:02:38;15.40;99.90
10572;DHT22;5334;48.928;12.704;2024-02-15T12:05:22;15.70;99.90
10572;DHT22;5334;48.928;12.704;2024-02-15T12:08:07;15.90;99.90
10572;DHT22;5334;48.928;12.704;2024-02-15T12:13:54;16.30;99.90
10572;DHT22;5334;48.928;12.704;2024-02-15T12:21:49;16.60;99.90
10572;DHT22;5334;48.928;12.704;2024-02-15T12:24:15;16.70;99.90
10572;DHT22;5334;48.928;12.704;2024-02-15T12:26:42;16.70;99.90
10572;DHT22;5334;48.928;12.704;2024-02-15T12:29:08;16.60;99.90
10572;DHT22;5334;48.928;12.704;2024-02-15T12:31:38;16.90;99.90
10572;DHT22;5334;48.928;12.704;2024-02-15T12:34:05;16.90;99.90
10572;DHT22;5334;48.928;12.704;2024-02-15T12:36:35;16.90;99.90
10572;DHT22;5334;48.928;12.704;2024-02-15T12:44:18;17.60;99.90
10572;DHT22;5334;48.928;12.704;2024-02-15T12:46:54;17.60;99.90
10572;DHT22;5334;48.928;12.704;2024-02-15T12:51:51;18.10;99.90
10572;DHT22;5334;48.928;12.704;2024-02-15T12:54:23;17.70;99.90
10572;DHT22;5334;48.928;12.704;2024-02-15T12:56:49;17.60;99.90
10572;DHT22;5334;48.928;12.704;2024-02-15T12:59:18;17.60;99.90
10572;DHT22;5334;48.928;12.704;2024-02-15T13:01:45;17.50;99.90
10572;DHT22;5334;48.928;12.704;2024-02-15T13:04:25;17.40;99.90
10572;DHT22;5334;48.928;12.704;2024-02-15T13:06:51;17.20;99.90
10572;DHT22;5334;48.928;12.704;2024-02-15T13:09:16;17.20;99.90
10572;DHT22;5334;48.928;12.704;2024-02-15T13:11:42;17.10;99.90
10572;DHT22;5334;48.928;12.704;2024-02-15T13:14:11;17.10;99.90
10572;DHT22;5334;48.928;12.704;2024-02-15T13:16:36;17.20;99.90
10572;DHT22;5334;48.928;12.704;2024-02-15T13:19:03;17.40;99.90
10572;DHT22;5334;48.928;12.704;2024-02-15T13:24:00;18.00;99.90
10572;DHT22;5334;48.928;12.704;2024-02-15T13:26:30;18.20;99.90
10572;DHT22;5334;48.928;12.704;2024-02-15T13:28:56;17.80;99.90
10572;DHT22;5334;48.928;12.704;2024-02-15T13:31:21;17.70;99.90
10572;DHT22;5334;48.928;12.704;2024-02-15T13:33:48;17.60;99.90
10572;DHT22;5334;48.928;12.704;2024-02-15T13:36:14;17.10;99.90
10572;DHT22;5334;48.928;12.704;2024-02-15T13:38:41;16.60;99.90
10572;DHT22;5334;48.928;12.704;2024-02-15T13:41:07;16.20;99.90
10572;DHT22;5334;48.928;12.704;2024-02-15T13:43:34;15.90;99.90
10572;DHT22;5334;48.928;12.704;2024-02-15T13:45:59;15.80;99.90
10572;DHT22;5334;48.928;12.704;2024-02-15T13:48:29;15.70;99.90
10572;DHT22;5334;48.928;12.704;2024-02-15T13:50:55;15.70;99.90
10572;DHT22;5334;48.928;12.704;2024-02-15T13:53:21;15.80;99.90
10572;DHT22;5334;48.928;12.704;2024-02-15T13:55:47;15.80;99.90
10572;DHT22;5334;48.928;12.704;2024-02-15T13:58:13;15.80;99.90
10572;DHT22;5334;48.928;12.704;2024-02-15T14:03:07;15.60;99.90
10572;DHT22;5334;48.928;12.704;2024-02-15T14:05:35;15.60;99.90
10572;DHT22;5334;48.928;12.704;2024-02-15T14:08:03;15.70;99.90
10572;DHT22;5334;48.928;12.704;2024-02-15T14:10:33;16.00;99.90
10572;DHT22;5334;48.928;12.704;2024-02-15T14:13:00;16.10;99.90
10572;DHT22;5334;48.928;12.704;2024-02-15T14:15:28;16.20;99.90
10572;DHT22;5334;48.928;12.704;2024-02-15T14:17:54;16.40;99.90
10572;DHT22;5334;48.928;12.704;2024-02-15T14:20:21;16.70;99.90
10572;DHT22;5334;48.928;12.704;2024-02-15T14:22:48;17.00;99.90
10572;DHT22;5334;48.928;12.704;2024-02-15T14:25:18;17.00;99.90
10572;DHT22;5334;48.928;12.704;2024-02-15T14:27:44;17.10;99.90
10572;DHT22;5334;48.928;12.704;2024-02-15T14:30:10;17.20;99.90
10572;DHT22;5334;48.928;12.704;2024-02-15T14:32:54;17.10;99.90
10572;DHT22;5334;48.928;12.704;2024-02-15T14:35:31;17.00;99.90
10572;DHT22;5334;48.928;12.704;2024-02-15T14:38:04;16.70;99.90
10572;DHT22;5334;48.928;12.704;2024-02-15T14:40:44;16.70;99.90
10572;DHT22;5334;48.928;12.704;2024-02-15T14:43:11;16.60;99.90
10572;DHT22;5334;48.928;12.704;2024-02-15T14:45:39;16.60;99.90
10572;DHT22;5334;48.928;12.704;2024-02-15T14:48:08;16.60;99.90
10572;DHT22;5334;48.928;12.704;2024-02-15T14:50:36;16.50;99.90
10572;DHT22;5334;48.928;12.704;2024-02-15T14:53:02;16.30;99.90
10572;DHT22;5334;48.928;12.704;2024-02-15T14:55:27;16.20;99.90
10572;DHT22;5334;48.928;12.704;2024-02-15T14:57:57;15.90;99.90
10572;DHT22;5334;48.928;12.704;2024-02-15T15:00:23;15.80;99.90
10572;DHT22;5334;48.928;12.704;2024-02-15T15:02:56;15.80;99.90
10572;DHT22;5334;48.928;12.704;2024-02-15T15:05:25;16.00;99.90
10572;DHT22;5334;48.928;12.704;2024-02-15T15:08:09;16.20;99.90
10572;DHT22;5334;48.928;12.704;2024-02-15T15:10:55;16.30;99.90
10572;DHT22;5334;48.928;12.704;2024-02-15T15:13:39;16.30;99.90
10572;DHT22;5334;48.928;12.704;2024-02-15T15:16:06;16.00;99.90
10572;DHT22;5334;48.928;12.704;2024-02-15T15:18:33;16.00;99.90
10572;DHT22;5334;48.928;12.704;2024-02-15T15:20:59;16.00;99.90
10572;DHT22;5334;48.928;12.704;2024-02-15T15:23:28;15.90;99.90
10572;DHT22;5334;48.928;12.704;2024-02-15T15:25:58;15.70;99.90
10572;DHT22;5334;48.928;12.704;2024-02-15T15:28:24;15.60;99.90
10572;DHT22;5334;48.928;12.704;2024-02-15T15:30:50;15.40;99.90
10572;DHT22;5334;48.928;12.704;2024-02-15T15:33:16;15.20;99.90
10572;DHT22;5334;48.928;12.704;2024-02-15T15:35:43;15.00;99.90
10572;DHT22;5334;48.928;12.704;2024-02-15T15:38:09;14.70;99.90
10572;DHT22;5334;48.928;12.704;2024-02-15T15:40:35;14.60;99.90
10572;DHT22;5334;48.928;12.704;2024-02-15T15:43:01;14.50;99.90
10572;DHT22;5334;48.928;12.704;2024-02-15T15:45:28;14.40;99.90
10572;DHT22;5334;48.928;12.704;2024-02-15T15:47:55;14.30;99.90
10572;DHT22;5334;48.928;12.704;2024-02-15T15:50:20;14.20;99.90
10572;DHT22;5334;48.928;12.704;2024-02-15T15:52:47;14.20;99.90
10572;DHT22;5334;48.928;12.704;2024-02-15T15:55:13;14.10;99.90
10572;DHT22;5334;48.928;12.704;2024-02-15T15:57:42;14.00;99.90
10572;DHT22;5334;48.928;12.704;2024-02-15T16:00:09;13.90;99.90
10572;DHT22;5334;48.928;12.704;2024-02-15T16:02:40;14.00;99.90
10572;DHT22;5334;48.928;12.704;2024-02-15T16:05:08;13.80;99.90
10572;DHT22;5334;48.928;12.704;2024-02-15T16:07:34;13.90;99.90
10572;DHT22;5334;48.928;12.704;2024-02-15T16:10:01;13.70;99.90
10572;DHT22;5334;48.928;12.704;2024-02-15T16:12:26;13.50;99.90
10572;DHT22;5334;48.928;12.704;2024-02-15T16:14:52;13.80;99.90